This is the latest recevied weather packets stored in our database for station/object CE4RG-12. If no packets are shown the sender has not sent any weather packets the latest 10 day(s).
| Time | Temp. | Humidity | Pressure | Rain* | Wind** | Luminosity | Snow |
|---|---|---|---|---|---|---|---|
| 1777564450 | 21.67° C | 46% | 955.4 hPa | - | - | - | - |
| 1777563850 | 21.67° C | 46% | 955.4 hPa | - | - | - | - |
| 1777563250 | 21.67° C | 46% | 955.4 hPa | - | - | - | - |
| 1777562682 | 21.11° C | 46% | 955.4 hPa | - | - | - | - |
| 1777562649 | 21.11° C | 46% | 955.4 hPa | - | - | - | - |
| 1777562049 | 21.11° C | 46% | 955.3 hPa | - | - | - | - |
| 1777561449 | 21.11° C | 47% | 955.2 hPa | - | - | - | - |
| 1777560849 | 20.56° C | 47% | 954.9 hPa | - | - | - | - |
| 1777560249 | 20.56° C | 47% | 954.9 hPa | - | - | - | - |
| 1777559649 | 20.56° C | 47% | 954.7 hPa | - | - | - | - |
| 1777559049 | 20.56° C | 47% | 954.7 hPa | - | - | - | - |
| 1777558449 | 20° C | 47% | 954.6 hPa | - | - | - | - |
| 1777557849 | 20° C | 47% | 954.4 hPa | - | - | - | - |
| 1777557249 | 20° C | 48% | 954.5 hPa | - | - | - | - |
| 1777556649 | 18.89° C | 48% | 953.1 hPa | - | - | - | - |
| 1777556048 | 19.44° C | 47% | 954.5 hPa | - | - | - | - |
| 1777555448 | 19.44° C | 47% | 954.4 hPa | - | - | - | - |
| 1777554848 | 19.44° C | 47% | 954.4 hPa | - | - | - | - |
| 1777554248 | 19.44° C | 47% | 954.4 hPa | - | - | - | - |
| 1777553648 | 19.44° C | 47% | 954.3 hPa | - | - | - | - |
| 1777553048 | 19.44° C | 47% | 954.3 hPa | - | - | - | - |
| 1777552448 | 19.44° C | 47% | 954.1 hPa | - | - | - | - |
| 1777551848 | 20° C | 47% | 953.9 hPa | - | - | - | - |
| 1777551248 | 20° C | 47% | 953.8 hPa | - | - | - | - |
| 1777550648 | 20° C | 46% | 953.8 hPa | - | - | - | - |
* Rain since midnight (hover to see other rain measurements)
** Current wind speed in m/s (hover to see current wind gust speed)